Monument Valley, Utah
Current Conditions -  °F | °C
As of 5:15 AM on Friday 31 Oct 2014 (Local Time) from KBDG Reporting Station
Clear Clear  
Wind Chill: 49°   Ceiling: Unl
Heat Index: 49°   Visibility: 10mi
Dew Point: 20°   Wind: 0mph
Humidity: 32%   Direction: NA
Pressure: 30.33"   Gusts: NA
Location:  37.1°N, 110.32°W
Report Text: KBDG 311115Z AUTO 00000KT 10SM CLR 09/M06 A3033 RMK AO1 T00941065
Loading
Personal Weather Stations






























Interactive Weather Map
Tropical Storm Tracking
New forecast layout! Learn more

10-Day Weather Forecast

Advertisements
Track Severe Weather on mobile